sensor_id;sensor_type;location;lat;lon;timestamp;temperature;humidity
3736;DHT22;1883;48.202;16.310;2023-12-20T00:12:39;2.60;57.80
3736;DHT22;1883;48.202;16.310;2023-12-20T00:15:21;2.50;57.70
3736;DHT22;1883;48.202;16.310;2023-12-20T00:18:06;2.50;57.70
3736;DHT22;1883;48.202;16.310;2023-12-20T00:21:00;2.40;57.70
3736;DHT22;1883;48.202;16.310;2023-12-20T00:26:45;2.20;57.60
3736;DHT22;1883;48.202;16.310;2023-12-20T00:34:43;2.40;57.20
3736;DHT22;1883;48.202;16.310;2023-12-20T00:37:12;2.40;57.00
3736;DHT22;1883;48.202;16.310;2023-12-20T00:39:39;2.40;57.20
3736;DHT22;1883;48.202;16.310;2023-12-20T00:42:09;2.30;57.20
3736;DHT22;1883;48.202;16.310;2023-12-20T00:44:37;2.20;57.40
3736;DHT22;1883;48.202;16.310;2023-12-20T00:47:05;2.10;57.20
3736;DHT22;1883;48.202;16.310;2023-12-20T00:52:25;2.00;57.50
3736;DHT22;1883;48.202;16.310;2023-12-20T00:55:01;2.00;57.30
3736;DHT22;1883;48.202;16.310;2023-12-20T00:57:29;2.00;57.30
3736;DHT22;1883;48.202;16.310;2023-12-20T00:59:57;2.10;57.10
3736;DHT22;1883;48.202;16.310;2023-12-20T01:02:28;2.20;57.10
3736;DHT22;1883;48.202;16.310;2023-12-20T01:05:09;2.30;57.20
3736;DHT22;1883;48.202;16.310;2023-12-20T01:07:46;2.30;57.20
3736;DHT22;1883;48.202;16.310;2023-12-20T01:10:14;2.40;57.20
3736;DHT22;1883;48.202;16.310;2023-12-20T01:12:44;2.40;57.30
3736;DHT22;1883;48.202;16.310;2023-12-20T01:15:15;2.40;57.30
3736;DHT22;1883;48.202;16.310;2023-12-20T01:17:58;2.60;57.20
3736;DHT22;1883;48.202;16.310;2023-12-20T01:20:34;2.40;57.20
3736;DHT22;1883;48.202;16.310;2023-12-20T01:23:14;2.50;57.00
3736;DHT22;1883;48.202;16.310;2023-12-20T01:25:43;2.30;57.00
3736;DHT22;1883;48.202;16.310;2023-12-20T01:28:18;2.60;57.00
3736;DHT22;1883;48.202;16.310;2023-12-20T01:31:05;2.60;57.10
3736;DHT22;1883;48.202;16.310;2023-12-20T01:33:46;2.60;57.10
3736;DHT22;1883;48.202;16.310;2023-12-20T01:36:42;2.60;57.20
3736;DHT22;1883;48.202;16.310;2023-12-20T01:39:23;2.70;57.10
3736;DHT22;1883;48.202;16.310;2023-12-20T01:41:51;2.70;57.20
3736;DHT22;1883;48.202;16.310;2023-12-20T01:44:19;2.80;57.20
3736;DHT22;1883;48.202;16.310;2023-12-20T01:46:47;2.70;57.30
3736;DHT22;1883;48.202;16.310;2023-12-20T01:49:16;2.60;57.30
3736;DHT22;1883;48.202;16.310;2023-12-20T01:51:45;2.50;57.50
3736;DHT22;1883;48.202;16.310;2023-12-20T01:54:28;2.50;57.40
3736;DHT22;1883;48.202;16.310;2023-12-20T01:56:56;2.50;57.50
3736;DHT22;1883;48.202;16.310;2023-12-20T01:59:23;2.40;57.30
3736;DHT22;1883;48.202;16.310;2023-12-20T02:01:52;2.50;57.30
3736;DHT22;1883;48.202;16.310;2023-12-20T02:04:34;2.40;57.50
3736;DHT22;1883;48.202;16.310;2023-12-20T02:07:03;2.50;57.30
3736;DHT22;1883;48.202;16.310;2023-12-20T02:09:49;2.50;57.40
3736;DHT22;1883;48.202;16.310;2023-12-20T02:12:24;2.50;57.50
3736;DHT22;1883;48.202;16.310;2023-12-20T02:14:54;2.30;57.60
3736;DHT22;1883;48.202;16.310;2023-12-20T02:17:39;2.30;57.70
3736;DHT22;1883;48.202;16.310;2023-12-20T02:20:09;2.30;57.70
3736;DHT22;1883;48.202;16.310;2023-12-20T02:22:52;2.30;57.90
3736;DHT22;1883;48.202;16.310;2023-12-20T02:25:24;2.40;58.10
3736;DHT22;1883;48.202;16.310;2023-12-20T02:27:52;2.50;58.20
3736;DHT22;1883;48.202;16.310;2023-12-20T02:30:19;2.60;58.50
3736;DHT22;1883;48.202;16.310;2023-12-20T02:33:01;2.80;58.90
3736;DHT22;1883;48.202;16.310;2023-12-20T02:35:30;3.20;59.50
3736;DHT22;1883;48.202;16.310;2023-12-20T02:37:59;3.60;60.20
3736;DHT22;1883;48.202;16.310;2023-12-20T02:40:26;3.90;60.90
3736;DHT22;1883;48.202;16.310;2023-12-20T02:42:53;4.30;61.60
3736;DHT22;1883;48.202;16.310;2023-12-20T02:45:20;4.60;62.20
3736;DHT22;1883;48.202;16.310;2023-12-20T02:47:49;4.70;62.70
3736;DHT22;1883;48.202;16.310;2023-12-20T02:50:16;5.10;63.20
3736;DHT22;1883;48.202;16.310;2023-12-20T02:52:45;5.40;64.00
3736;DHT22;1883;48.202;16.310;2023-12-20T02:55:13;5.70;64.50
3736;DHT22;1883;48.202;16.310;2023-12-20T02:57:40;6.00;65.10
3736;DHT22;1883;48.202;16.310;2023-12-20T03:00:08;6.20;65.60
3736;DHT22;1883;48.202;16.310;2023-12-20T03:02:37;6.30;66.00
3736;DHT22;1883;48.202;16.310;2023-12-20T03:05:04;6.40;66.20
3736;DHT22;1883;48.202;16.310;2023-12-20T03:07:31;6.50;66.50
3736;DHT22;1883;48.202;16.310;2023-12-20T03:09:58;6.50;66.60
3736;DHT22;1883;48.202;16.310;2023-12-20T03:12:27;6.50;66.70
3736;DHT22;1883;48.202;16.310;2023-12-20T03:14:54;6.40;66.70
3736;DHT22;1883;48.202;16.310;2023-12-20T03:17:21;6.40;66.70
3736;DHT22;1883;48.202;16.310;2023-12-20T03:19:48;6.50;66.90
3736;DHT22;1883;48.202;16.310;2023-12-20T03:22:17;6.60;67.20
3736;DHT22;1883;48.202;16.310;2023-12-20T03:24:44;6.50;67.20
3736;DHT22;1883;48.202;16.310;2023-12-20T03:27:11;6.50;67.20
3736;DHT22;1883;48.202;16.310;2023-12-20T03:29:39;6.40;67.20
3736;DHT22;1883;48.202;16.310;2023-12-20T03:32:06;6.30;67.00
3736;DHT22;1883;48.202;16.310;2023-12-20T03:34:34;6.10;67.00
3736;DHT22;1883;48.202;16.310;2023-12-20T03:37:01;5.90;66.90
3736;DHT22;1883;48.202;16.310;2023-12-20T03:39:28;5.40;66.70
3736;DHT22;1883;48.202;16.310;2023-12-20T03:41:57;5.00;66.40
3736;DHT22;1883;48.202;16.310;2023-12-20T03:44:25;4.80;66.10
3736;DHT22;1883;48.202;16.310;2023-12-20T03:50:00;4.70;65.60
3736;DHT22;1883;48.202;16.310;2023-12-20T03:52:28;4.70;65.50
3736;DHT22;1883;48.202;16.310;2023-12-20T03:54:58;4.90;65.80
3736;DHT22;1883;48.202;16.310;2023-12-20T03:57:25;4.80;65.80
3736;DHT22;1883;48.202;16.310;2023-12-20T03:59:54;4.70;65.50
3736;DHT22;1883;48.202;16.310;2023-12-20T04:02:22;4.60;65.40
3736;DHT22;1883;48.202;16.310;2023-12-20T04:04:56;4.50;65.20
3736;DHT22;1883;48.202;16.310;2023-12-20T04:07:28;4.50;65.10
3736;DHT22;1883;48.202;16.310;2023-12-20T04:10:00;4.50;65.00
3736;DHT22;1883;48.202;16.310;2023-12-20T04:12:44;4.40;65.00
3736;DHT22;1883;48.202;16.310;2023-12-20T04:15:12;4.40;64.90
3736;DHT22;1883;48.202;16.310;2023-12-20T04:17:40;4.40;64.90
3736;DHT22;1883;48.202;16.310;2023-12-20T04:20:10;4.30;65.00
3736;DHT22;1883;48.202;16.310;2023-12-20T04:22:50;4.20;64.90
3736;DHT22;1883;48.202;16.310;2023-12-20T04:25:19;4.20;64.80
3736;DHT22;1883;48.202;16.310;2023-12-20T04:27:47;4.20;64.80
3736;DHT22;1883;48.202;16.310;2023-12-20T04:30:17;4.20;64.90
3736;DHT22;1883;48.202;16.310;2023-12-20T04:32:45;4.80;65.50
3736;DHT22;1883;48.202;16.310;2023-12-20T04:35:15;4.90;65.70
3736;DHT22;1883;48.202;16.310;2023-12-20T04:37:54;4.90;65.80
3736;DHT22;1883;48.202;16.310;2023-12-20T04:40:21;5.10;66.00
3736;DHT22;1883;48.202;16.310;2023-12-20T04:42:48;5.30;66.40
3736;DHT22;1883;48.202;16.310;2023-12-20T04:45:15;5.60;66.60
3736;DHT22;1883;48.202;16.310;2023-12-20T04:47:42;5.80;66.80
3736;DHT22;1883;48.202;16.310;2023-12-20T04:50:14;6.00;66.90
3736;DHT22;1883;48.202;16.310;2023-12-20T04:52:41;6.10;67.00
3736;DHT22;1883;48.202;16.310;2023-12-20T04:55:12;6.10;67.00
3736;DHT22;1883;48.202;16.310;2023-12-20T04:57:47;6.10;66.90
3736;DHT22;1883;48.202;16.310;2023-12-20T05:00:14;6.10;66.80
3736;DHT22;1883;48.202;16.310;2023-12-20T05:02:42;6.10;66.70
3736;DHT22;1883;48.202;16.310;2023-12-20T05:05:10;6.20;66.60
3736;DHT22;1883;48.202;16.310;2023-12-20T05:07:52;6.20;66.50
3736;DHT22;1883;48.202;16.310;2023-12-20T05:10:36;6.40;66.50
3736;DHT22;1883;48.202;16.310;2023-12-20T05:13:25;6.40;66.30
3736;DHT22;1883;48.202;16.310;2023-12-20T05:15:54;6.40;66.20
3736;DHT22;1883;48.202;16.310;2023-12-20T05:18:34;6.40;66.00
3736;DHT22;1883;48.202;16.310;2023-12-20T05:21:02;6.40;65.80
3736;DHT22;1883;48.202;16.310;2023-12-20T05:23:31;6.40;65.80
3736;DHT22;1883;48.202;16.310;2023-12-20T05:26:01;6.40;65.70
3736;DHT22;1883;48.202;16.310;2023-12-20T05:28:28;6.50;65.60
3736;DHT22;1883;48.202;16.310;2023-12-20T05:30:58;6.50;65.40
3736;DHT22;1883;48.202;16.310;2023-12-20T05:33:25;6.50;65.40
3736;DHT22;1883;48.202;16.310;2023-12-20T05:35:52;6.60;65.40
3736;DHT22;1883;48.202;16.310;2023-12-20T05:38:19;6.60;65.40
3736;DHT22;1883;48.202;16.310;2023-12-20T05:40:46;6.60;65.40
3736;DHT22;1883;48.202;16.310;2023-12-20T05:43:31;6.60;65.40
3736;DHT22;1883;48.202;16.310;2023-12-20T05:46:09;6.60;65.40
3736;DHT22;1883;48.202;16.310;2023-12-20T05:48:36;6.70;65.30
3736;DHT22;1883;48.202;16.310;2023-12-20T05:51:04;6.70;65.30
3736;DHT22;1883;48.202;16.310;2023-12-20T05:53:31;6.80;65.30
3736;DHT22;1883;48.202;16.310;2023-12-20T05:55:59;6.70;65.30
3736;DHT22;1883;48.202;16.310;2023-12-20T05:58:27;6.80;65.30
3736;DHT22;1883;48.202;16.310;2023-12-20T06:01:10;6.80;65.30
3736;DHT22;1883;48.202;16.310;2023-12-20T06:03:41;6.90;65.40
3736;DHT22;1883;48.202;16.310;2023-12-20T06:06:09;7.00;65.40
3736;DHT22;1883;48.202;16.310;2023-12-20T06:08:36;7.10;65.50
3736;DHT22;1883;48.202;16.310;2023-12-20T06:11:05;7.00;65.40
3736;DHT22;1883;48.202;16.310;2023-12-20T06:13:35;7.20;65.60
3736;DHT22;1883;48.202;16.310;2023-12-20T06:16:05;7.10;65.60
3736;DHT22;1883;48.202;16.310;2023-12-20T06:18:34;7.30;65.70
3736;DHT22;1883;48.202;16.310;2023-12-20T06:21:04;7.40;65.90
3736;DHT22;1883;48.202;16.310;2023-12-20T06:39:48;7.50;66.50
3736;DHT22;1883;48.202;16.310;2023-12-20T06:42:28;7.50;66.40
3736;DHT22;1883;48.202;16.310;2023-12-20T06:44:55;7.50;66.40
3736;DHT22;1883;48.202;16.310;2023-12-20T06:47:23;7.60;66.50
3736;DHT22;1883;48.202;16.310;2023-12-20T06:49:52;7.60;66.40
3736;DHT22;1883;48.202;16.310;2023-12-20T06:52:19;7.60;66.40
3736;DHT22;1883;48.202;16.310;2023-12-20T06:54:47;7.60;66.30
3736;DHT22;1883;48.202;16.310;2023-12-20T06:57:15;7.50;66.30
3736;DHT22;1883;48.202;16.310;2023-12-20T06:59:43;7.50;66.20
3736;DHT22;1883;48.202;16.310;2023-12-20T07:02:10;7.40;66.20
3736;DHT22;1883;48.202;16.310;2023-12-20T07:04:41;7.50;66.20
3736;DHT22;1883;48.202;16.310;2023-12-20T07:07:10;7.60;66.30
3736;DHT22;1883;48.202;16.310;2023-12-20T07:09:39;7.60;66.40
3736;DHT22;1883;48.202;16.310;2023-12-20T07:12:09;7.60;66.50
3736;DHT22;1883;48.202;16.310;2023-12-20T07:14:37;7.60;66.50
3736;DHT22;1883;48.202;16.310;2023-12-20T07:17:04;7.70;66.70
3736;DHT22;1883;48.202;16.310;2023-12-20T07:19:33;7.70;66.70
3736;DHT22;1883;48.202;16.310;2023-12-20T07:22:00;7.60;66.60
3736;DHT22;1883;48.202;16.310;2023-12-20T07:24:28;7.60;66.40
3736;DHT22;1883;48.202;16.310;2023-12-20T07:26:55;7.60;66.30
3736;DHT22;1883;48.202;16.310;2023-12-20T07:29:23;7.50;65.90
3736;DHT22;1883;48.202;16.310;2023-12-20T07:31:52;7.30;65.20
3736;DHT22;1883;48.202;16.310;2023-12-20T07:34:20;7.10;64.80
3736;DHT22;1883;48.202;16.310;2023-12-20T07:36:47;7.00;64.60
3736;DHT22;1883;48.202;16.310;2023-12-20T07:39:18;6.90;64.40
3736;DHT22;1883;48.202;16.310;2023-12-20T07:41:47;6.80;64.30
3736;DHT22;1883;48.202;16.310;2023-12-20T07:44:15;6.80;64.30
3736;DHT22;1883;48.202;16.310;2023-12-20T07:46:48;6.70;64.20
3736;DHT22;1883;48.202;16.310;2023-12-20T07:49:19;6.70;64.10
3736;DHT22;1883;48.202;16.310;2023-12-20T07:51:46;6.70;64.10
3736;DHT22;1883;48.202;16.310;2023-12-20T07:57:01;6.70;63.60
3736;DHT22;1883;48.202;16.310;2023-12-20T07:59:32;6.70;63.50
3736;DHT22;1883;48.202;16.310;2023-12-20T08:02:03;6.70;63.50
3736;DHT22;1883;48.202;16.310;2023-12-20T08:04:32;6.70;63.50
3736;DHT22;1883;48.202;16.310;2023-12-20T08:07:00;6.70;63.60
3736;DHT22;1883;48.202;16.310;2023-12-20T08:09:34;6.80;63.60
3736;DHT22;1883;48.202;16.310;2023-12-20T08:12:05;6.80;63.60
3736;DHT22;1883;48.202;16.310;2023-12-20T08:14:52;6.80;63.90
3736;DHT22;1883;48.202;16.310;2023-12-20T08:17:36;6.70;63.90
3736;DHT22;1883;48.202;16.310;2023-12-20T08:20:05;6.70;64.10
3736;DHT22;1883;48.202;16.310;2023-12-20T08:22:32;6.80;64.20
3736;DHT22;1883;48.202;16.310;2023-12-20T08:25:14;6.70;64.10
3736;DHT22;1883;48.202;16.310;2023-12-20T08:27:42;6.80;64.30
3736;DHT22;1883;48.202;16.310;2023-12-20T08:30:19;6.80;64.30
3736;DHT22;1883;48.202;16.310;2023-12-20T08:33:13;6.80;64.40
3736;DHT22;1883;48.202;16.310;2023-12-20T08:35:43;6.90;64.50
3736;DHT22;1883;48.202;16.310;2023-12-20T08:38:11;6.90;64.60
3736;DHT22;1883;48.202;16.310;2023-12-20T08:40:39;6.90;64.60
3736;DHT22;1883;48.202;16.310;2023-12-20T08:43:11;7.00;64.60
3736;DHT22;1883;48.202;16.310;2023-12-20T08:45:41;7.00;64.70
3736;DHT22;1883;48.202;16.310;2023-12-20T08:48:26;7.00;64.60
3736;DHT22;1883;48.202;16.310;2023-12-20T08:50:57;7.00;64.60
3736;DHT22;1883;48.202;16.310;2023-12-20T08:53:38;7.00;64.70
3736;DHT22;1883;48.202;16.310;2023-12-20T08:56:06;7.00;64.70
3736;DHT22;1883;48.202;16.310;2023-12-20T08:58:48;7.00;64.70
3736;DHT22;1883;48.202;16.310;2023-12-20T09:01:21;6.90;64.70
3736;DHT22;1883;48.202;16.310;2023-12-20T09:04:07;6.80;64.60
3736;DHT22;1883;48.202;16.310;2023-12-20T09:06:36;6.90;64.60
3736;DHT22;1883;48.202;16.310;2023-12-20T09:09:27;6.90;64.60
3736;DHT22;1883;48.202;16.310;2023-12-20T09:11:58;7.00;64.60
3736;DHT22;1883;48.202;16.310;2023-12-20T09:14:51;6.80;64.50
3736;DHT22;1883;48.202;16.310;2023-12-20T09:17:19;6.80;64.40
3736;DHT22;1883;48.202;16.310;2023-12-20T09:20:03;6.90;64.40
3736;DHT22;1883;48.202;16.310;2023-12-20T09:22:41;6.70;64.10
3736;DHT22;1883;48.202;16.310;2023-12-20T09:25:39;6.70;64.00
3736;DHT22;1883;48.202;16.310;2023-12-20T09:28:08;6.70;63.70
3736;DHT22;1883;48.202;16.310;2023-12-20T09:30:53;6.70;63.60
3736;DHT22;1883;48.202;16.310;2023-12-20T09:33:34;6.60;63.60
3736;DHT22;1883;48.202;16.310;2023-12-20T11:16:12;6.30;59.80
3736;DHT22;1883;48.202;16.310;2023-12-20T11:19:23;6.30;59.90
3736;DHT22;1883;48.202;16.310;2023-12-20T11:22:06;6.40;60.00
3736;DHT22;1883;48.202;16.310;2023-12-20T11:24:48;6.40;60.10
3736;DHT22;1883;48.202;16.310;2023-12-20T11:27:30;6.40;60.20
3736;DHT22;1883;48.202;16.310;2023-12-20T11:30:22;6.40;60.20
3736;DHT22;1883;48.202;16.310;2023-12-20T11:33:08;6.40;60.20
3736;DHT22;1883;48.202;16.310;2023-12-20T11:36:01;6.50;60.40
3736;DHT22;1883;48.202;16.310;2023-12-20T11:49:10;6.60;60.70
3736;DHT22;1883;48.202;16.310;2023-12-20T11:51:40;6.60;60.70
3736;DHT22;1883;48.202;16.310;2023-12-20T11:54:41;6.70;60.80
3736;DHT22;1883;48.202;16.310;2023-12-20T11:57:23;6.70;60.90
3736;DHT22;1883;48.202;16.310;2023-12-20T12:00:05;6.80;61.00
3736;DHT22;1883;48.202;16.310;2023-12-20T12:02:56;6.80;61.10
3736;DHT22;1883;48.202;16.310;2023-12-20T12:05:54;6.90;61.30
3736;DHT22;1883;48.202;16.310;2023-12-20T12:08:34;7.00;61.20
3736;DHT22;1883;48.202;16.310;2023-12-20T12:11:26;7.00;61.50
3736;DHT22;1883;48.202;16.310;2023-12-20T12:14:10;7.00;61.60
3736;DHT22;1883;48.202;16.310;2023-12-20T12:16:41;7.10;61.70
3736;DHT22;1883;48.202;16.310;2023-12-20T12:19:24;7.10;61.60
3736;DHT22;1883;48.202;16.310;2023-12-20T12:22:04;7.20;62.00
3736;DHT22;1883;48.202;16.310;2023-12-20T12:24:39;7.20;62.00
3736;DHT22;1883;48.202;16.310;2023-12-20T12:27:07;7.20;62.10
3736;DHT22;1883;48.202;16.310;2023-12-20T12:29:37;7.20;62.10
3736;DHT22;1883;48.202;16.310;2023-12-20T12:32:20;7.20;62.10
3736;DHT22;1883;48.202;16.310;2023-12-20T12:34:55;7.30;62.20
3736;DHT22;1883;48.202;16.310;2023-12-20T12:37:39;7.30;62.30
3736;DHT22;1883;48.202;16.310;2023-12-20T12:40:34;7.20;62.10
3736;DHT22;1883;48.202;16.310;2023-12-20T12:43:45;7.20;62.20
3736;DHT22;1883;48.202;16.310;2023-12-20T12:46:46;7.10;62.30
3736;DHT22;1883;48.202;16.310;2023-12-20T12:49:17;7.20;62.10
3736;DHT22;1883;48.202;16.310;2023-12-20T12:52:25;7.10;62.20
3736;DHT22;1883;48.202;16.310;2023-12-20T12:55:18;7.10;62.30
3736;DHT22;1883;48.202;16.310;2023-12-20T12:58:07;7.10;62.30
3736;DHT22;1883;48.202;16.310;2023-12-20T13:01:06;7.10;62.30
3736;DHT22;1883;48.202;16.310;2023-12-20T13:03:35;7.00;62.10
3736;DHT22;1883;48.202;16.310;2023-12-20T13:06:17;7.00;62.30
3736;DHT22;1883;48.202;16.310;2023-12-20T13:08:53;7.10;62.40
3736;DHT22;1883;48.202;16.310;2023-12-20T13:17:06;7.00;62.40
3736;DHT22;1883;48.202;16.310;2023-12-20T13:19:48;7.00;62.50
3736;DHT22;1883;48.202;16.310;2023-12-20T13:22:29;7.00;62.50
3736;DHT22;1883;48.202;16.310;2023-12-20T13:25:11;7.00;62.40
3736;DHT22;1883;48.202;16.310;2023-12-20T13:27:53;6.90;62.40
3736;DHT22;1883;48.202;16.310;2023-12-20T13:34:09;7.00;62.40
3736;DHT22;1883;48.202;16.310;2023-12-20T13:36:54;7.00;62.40
3736;DHT22;1883;48.202;16.310;2023-12-20T13:39:35;7.10;62.40
3736;DHT22;1883;48.202;16.310;2023-12-20T13:42:14;7.00;62.40
3736;DHT22;1883;48.202;16.310;2023-12-20T13:44:46;6.90;62.30
3736;DHT22;1883;48.202;16.310;2023-12-20T13:47:29;6.90;62.30
3736;DHT22;1883;48.202;16.310;2023-12-20T13:53:35;6.90;62.20
3736;DHT22;1883;48.202;16.310;2023-12-20T13:56:06;6.90;62.20
3736;DHT22;1883;48.202;16.310;2023-12-20T13:58:48;6.80;62.10
3736;DHT22;1883;48.202;16.310;2023-12-20T14:01:34;6.80;62.10
3736;DHT22;1883;48.202;16.310;2023-12-20T14:04:15;6.80;62.10
3736;DHT22;1883;48.202;16.310;2023-12-20T14:06:43;6.70;62.00
3736;DHT22;1883;48.202;16.310;2023-12-20T14:12:44;6.80;61.90
3736;DHT22;1883;48.202;16.310;2023-12-20T14:15:27;6.70;61.90
3736;DHT22;1883;48.202;16.310;2023-12-20T14:18:13;6.70;61.90
3736;DHT22;1883;48.202;16.310;2023-12-20T14:20:54;6.70;61.90
3736;DHT22;1883;48.202;16.310;2023-12-20T14:23:23;6.70;61.90
3736;DHT22;1883;48.202;16.310;2023-12-20T14:26:05;6.60;61.90
3736;DHT22;1883;48.202;16.310;2023-12-20T14:28:45;6.60;61.90
3736;DHT22;1883;48.202;16.310;2023-12-20T14:31:26;6.60;61.80
3736;DHT22;1883;48.202;16.310;2023-12-20T14:33:55;6.50;61.80
3736;DHT22;1883;48.202;16.310;2023-12-20T14:36:22;6.50;61.70
3736;DHT22;1883;48.202;16.310;2023-12-20T14:38:52;6.40;61.60
3736;DHT22;1883;48.202;16.310;2023-12-20T14:41:24;6.50;61.50
3736;DHT22;1883;48.202;16.310;2023-12-20T14:43:57;6.50;61.60
3736;DHT22;1883;48.202;16.310;2023-12-20T14:46:38;6.50;61.50
3736;DHT22;1883;48.202;16.310;2023-12-20T14:49:19;6.50;61.60
3736;DHT22;1883;48.202;16.310;2023-12-20T14:52:00;6.50;61.60
3736;DHT22;1883;48.202;16.310;2023-12-20T14:54:28;6.50;61.60
3736;DHT22;1883;48.202;16.310;2023-12-20T14:57:05;6.40;61.50
3736;DHT22;1883;48.202;16.310;2023-12-20T15:09:44;6.40;61.40
3736;DHT22;1883;48.202;16.310;2023-12-20T15:12:25;6.50;61.50
3736;DHT22;1883;48.202;16.310;2023-12-20T15:15:09;6.50;61.50
3736;DHT22;1883;48.202;16.310;2023-12-20T15:17:51;6.50;61.60
3736;DHT22;1883;48.202;16.310;2023-12-20T15:20:33;6.50;61.60
3736;DHT22;1883;48.202;16.310;2023-12-20T15:23:14;6.50;61.60
3736;DHT22;1883;48.202;16.310;2023-12-20T15:32:27;6.50;61.60
3736;DHT22;1883;48.202;16.310;2023-12-20T15:34:56;6.60;61.70
3736;DHT22;1883;48.202;16.310;2023-12-20T15:37:38;6.70;61.70
3736;DHT22;1883;48.202;16.310;2023-12-20T15:40:21;6.60;61.80
3736;DHT22;1883;48.202;16.310;2023-12-20T15:42:51;6.60;61.80
3736;DHT22;1883;48.202;16.310;2023-12-20T15:45:34;6.60;61.80
3736;DHT22;1883;48.202;16.310;2023-12-20T15:48:12;6.60;61.80
3736;DHT22;1883;48.202;16.310;2023-12-20T15:50:54;6.60;61.90
3736;DHT22;1883;48.202;16.310;2023-12-20T15:53:29;6.60;61.90
3736;DHT22;1883;48.202;16.310;2023-12-20T15:56:38;6.60;61.80
3736;DHT22;1883;48.202;16.310;2023-12-20T15:59:28;6.60;61.80
3736;DHT22;1883;48.202;16.310;2023-12-20T16:02:16;6.60;61.80
3736;DHT22;1883;48.202;16.310;2023-12-20T16:05:00;6.70;61.90
3736;DHT22;1883;48.202;16.310;2023-12-20T16:07:36;6.60;61.90
3736;DHT22;1883;48.202;16.310;2023-12-20T16:10:04;6.60;61.80
3736;DHT22;1883;48.202;16.310;2023-12-20T16:12:56;6.50;61.70
3736;DHT22;1883;48.202;16.310;2023-12-20T16:15:57;6.60;61.70
3736;DHT22;1883;48.202;16.310;2023-12-20T16:18:55;6.60;61.80
3736;DHT22;1883;48.202;16.310;2023-12-20T17:57:11;5.60;61.90
3736;DHT22;1883;48.202;16.310;2023-12-20T18:00:11;5.60;61.90
3736;DHT22;1883;48.202;16.310;2023-12-20T18:02:43;5.80;61.90
3736;DHT22;1883;48.202;16.310;2023-12-20T18:05:17;5.80;62.10
3736;DHT22;1883;48.202;16.310;2023-12-20T18:11:10;5.80;62.30
3736;DHT22;1883;48.202;16.310;2023-12-20T18:27:48;5.40;62.30
3736;DHT22;1883;48.202;16.310;2023-12-20T18:30:33;5.40;62.30
3736;DHT22;1883;48.202;16.310;2023-12-20T18:33:58;5.40;62.50
3736;DHT22;1883;48.202;16.310;2023-12-20T18:37:02;5.40;62.60
3736;DHT22;1883;48.202;16.310;2023-12-20T18:40:58;5.40;62.70
3736;DHT22;1883;48.202;16.310;2023-12-20T23:24:51;5.80;65.30
3736;DHT22;1883;48.202;16.310;2023-12-20T23:27:41;5.80;65.40
3736;DHT22;1883;48.202;16.310;2023-12-20T23:30:44;5.80;65.40
3736;DHT22;1883;48.202;16.310;2023-12-20T23:38:37;5.80;65.40
